sensor_id;sensor_type;location;lat;lon;timestamp;pressure;altitude;pressure_sealevel;temperature;humidity
40075;BME280;26529;51.530;11.754;2023-02-22T00:00:18;100160.59;;;20.29;47.02
40075;BME280;26529;51.530;11.754;2023-02-22T00:02:45;100164.19;;;20.28;47.04
40075;BME280;26529;51.530;11.754;2023-02-22T00:05:11;100160.59;;;20.29;47.12
40075;BME280;26529;51.530;11.754;2023-02-22T00:07:40;100164.97;;;20.30;47.08
40075;BME280;26529;51.530;11.754;2023-02-22T00:10:06;100157.94;;;20.29;46.96
40075;BME280;26529;51.530;11.754;2023-02-22T00:12:41;100157.94;;;20.29;47.13
40075;BME280;26529;51.530;11.754;2023-02-22T00:15:08;100160.59;;;20.29;47.09
40075;BME280;26529;51.530;11.754;2023-02-22T00:17:34;100152.72;;;20.28;47.06
40075;BME280;26529;51.530;11.754;2023-02-22T00:20:00;100160.59;;;20.29;46.98
40075;BME280;26529;51.530;11.754;2023-02-22T00:22:26;100157.94;;;20.29;47.13
40075;BME280;26529;51.530;11.754;2023-02-22T00:24:51;100148.22;;;20.28;47.05
40075;BME280;26529;51.530;11.754;2023-02-22T00:27:17;100153.56;;;20.28;47.12
40075;BME280;26529;51.530;11.754;2023-02-22T00:29:45;100147.28;;;20.29;46.95
40075;BME280;26529;51.530;11.754;2023-02-22T00:32:11;100145.56;;;20.28;47.30
40075;BME280;26529;51.530;11.754;2023-02-22T00:34:38;100147.38;;;20.28;47.13
40075;BME280;26529;51.530;11.754;2023-02-22T00:37:04;100148.22;;;20.28;47.16
40075;BME280;26529;51.530;11.754;2023-02-22T00:39:29;100145.56;;;20.28;47.11
40075;BME280;26529;51.530;11.754;2023-02-22T00:41:55;100142.91;;;20.28;47.16
40075;BME280;26529;51.530;11.754;2023-02-22T00:44:22;100138.53;;;20.27;47.20
40075;BME280;26529;51.530;11.754;2023-02-22T00:46:47;100141.19;;;20.27;47.12
40075;BME280;26529;51.530;11.754;2023-02-22T00:49:15;100135.88;;;20.27;47.16
40075;BME280;26529;51.530;11.754;2023-02-22T00:51:41;100137.72;;;20.27;47.08
40075;BME280;26529;51.530;11.754;2023-02-22T00:54:06;100134.06;;;20.28;47.29
40075;BME280;26529;51.530;11.754;2023-02-22T00:56:33;100130.56;;;20.27;47.13
40075;BME280;26529;51.530;11.754;2023-02-22T00:58:59;100125.22;;;20.27;47.06
40075;BME280;26529;51.530;11.754;2023-02-22T01:01:26;100123.53;;;20.26;46.94
40075;BME280;26529;51.530;11.754;2023-02-22T01:03:53;100124.41;;;20.27;47.23
40075;BME280;26529;51.530;11.754;2023-02-22T01:06:19;100118.19;;;20.26;47.20
40075;BME280;26529;51.530;11.754;2023-02-22T01:08:46;100121.72;;;20.27;47.13
40075;BME280;26529;51.530;11.754;2023-02-22T01:11:12;100119.06;;;20.27;47.13
40075;BME280;26529;51.530;11.754;2023-02-22T01:13:41;100117.25;;;20.27;47.05
40075;BME280;26529;51.530;11.754;2023-02-22T01:16:06;100113.75;;;20.27;47.04
40075;BME280;26529;51.530;11.754;2023-02-22T01:18:36;100117.38;;;20.26;47.20
40075;BME280;26529;51.530;11.754;2023-02-22T01:21:04;100104.88;;;20.26;47.11
40075;BME280;26529;51.530;11.754;2023-02-22T01:23:30;100108.53;;;20.25;47.26
40075;BME280;26529;51.530;11.754;2023-02-22T01:25:57;100107.56;;;20.26;47.18
40075;BME280;26529;51.530;11.754;2023-02-22T01:28:22;100100.53;;;20.25;47.13
40075;BME280;26529;51.530;11.754;2023-02-22T01:30:48;100104.06;;;20.26;47.17
40075;BME280;26529;51.530;11.754;2023-02-22T01:33:15;100103.19;;;20.25;47.09
40075;BME280;26529;51.530;11.754;2023-02-22T01:35:42;100110.31;;;20.25;47.24
40075;BME280;26529;51.530;11.754;2023-02-22T01:38:10;100095.22;;;20.25;47.08
40075;BME280;26529;51.530;11.754;2023-02-22T01:40:40;100100.53;;;20.25;47.05
40075;BME280;26529;51.530;11.754;2023-02-22T01:43:28;100105.00;;;20.25;47.04
40075;BME280;26529;51.530;11.754;2023-02-22T01:48:30;100100.53;;;20.25;46.99
40075;BME280;26529;51.530;11.754;2023-02-22T01:51:06;100095.31;;;20.24;47.00
40075;BME280;26529;51.530;11.754;2023-02-22T01:53:39;100093.50;;;20.24;47.01
40075;BME280;26529;51.530;11.754;2023-02-22T01:56:06;100092.66;;;20.24;47.06
40075;BME280;26529;51.530;11.754;2023-02-22T01:58:34;100096.16;;;20.24;47.12
40075;BME280;26529;51.530;11.754;2023-02-22T02:01:01;100082.84;;;20.24;47.07
40075;BME280;26529;51.530;11.754;2023-02-22T02:03:30;100086.34;;;20.25;47.19
40075;BME280;26529;51.530;11.754;2023-02-22T02:06:02;100077.53;;;20.24;47.17
40075;BME280;26529;51.530;11.754;2023-02-22T02:08:40;100075.84;;;20.23;47.02
40075;BME280;26529;51.530;11.754;2023-02-22T02:11:11;100084.56;;;20.25;47.11
40075;BME280;26529;51.530;11.754;2023-02-22T02:13:37;100075.84;;;20.23;47.15
40075;BME280;26529;51.530;11.754;2023-02-22T02:16:03;100078.50;;;20.23;47.09
40075;BME280;26529;51.530;11.754;2023-02-22T02:18:29;100077.53;;;20.24;47.19
40075;BME280;26529;51.530;11.754;2023-02-22T02:21:19;100074.88;;;20.24;47.08
40075;BME280;26529;51.530;11.754;2023-02-22T02:24:11;100069.66;;;20.23;47.08
40075;BME280;26529;51.530;11.754;2023-02-22T02:27:07;100073.19;;;20.23;47.13
40075;BME280;26529;51.530;11.754;2023-02-22T02:29:54;100072.22;;;20.24;46.98
40075;BME280;26529;51.530;11.754;2023-02-22T02:35:31;100076.66;;;20.24;47.12
40075;BME280;26529;51.530;11.754;2023-02-22T02:38:23;100075.84;;;20.23;46.97
40075;BME280;26529;51.530;11.754;2023-02-22T02:40:57;100066.13;;;20.22;47.19
40075;BME280;26529;51.530;11.754;2023-02-22T02:43:50;100068.78;;;20.22;46.99
40075;BME280;26529;51.530;11.754;2023-02-22T02:46:26;100067.84;;;20.23;47.08
40075;BME280;26529;51.530;11.754;2023-02-22T02:49:00;100063.47;;;20.22;47.06
40075;BME280;26529;51.530;11.754;2023-02-22T02:51:31;100063.47;;;20.22;47.10
40075;BME280;26529;51.530;11.754;2023-02-22T02:53:59;100065.19;;;20.23;47.06
40075;BME280;26529;51.530;11.754;2023-02-22T02:56:26;100061.75;;;20.21;47.11
40075;BME280;26529;51.530;11.754;2023-02-22T02:58:53;100058.13;;;20.22;47.02
40075;BME280;26529;51.530;11.754;2023-02-22T03:01:44;100061.75;;;20.21;47.21
40075;BME280;26529;51.530;11.754;2023-02-22T03:06:56;100055.59;;;20.20;47.22
40075;BME280;26529;51.530;11.754;2023-02-22T03:12:26;100045.78;;;20.21;47.11
40075;BME280;26529;51.530;11.754;2023-02-22T03:15:08;100058.28;;;20.20;47.07
40075;BME280;26529;51.530;11.754;2023-02-22T03:17:49;100044.09;;;20.20;47.09
40075;BME280;26529;51.530;11.754;2023-02-22T03:23:21;100055.47;;;20.22;47.02
40075;BME280;26529;51.530;11.754;2023-02-22T03:26:00;100050.28;;;20.20;47.01
40075;BME280;26529;51.530;11.754;2023-02-22T03:28:29;100054.75;;;20.20;47.17
40075;BME280;26529;51.530;11.754;2023-02-22T03:31:05;100048.59;;;20.19;46.99
40075;BME280;26529;51.530;11.754;2023-02-22T03:33:39;100056.56;;;20.19;47.11
40075;BME280;26529;51.530;11.754;2023-02-22T03:36:13;100057.41;;;20.20;47.15
40075;BME280;26529;51.530;11.754;2023-02-22T03:38:41;100060.06;;;20.20;47.16
40075;BME280;26529;51.530;11.754;2023-02-22T03:41:13;100050.38;;;20.19;46.95
40075;BME280;26529;51.530;11.754;2023-02-22T03:43:46;100054.75;;;20.20;47.07
40075;BME280;26529;51.530;11.754;2023-02-22T03:46:16;100051.13;;;20.21;47.14
40075;BME280;26529;51.530;11.754;2023-02-22T03:49:02;100044.09;;;20.20;47.14
40075;BME280;26529;51.530;11.754;2023-02-22T03:51:34;100055.72;;;20.19;47.12
40075;BME280;26529;51.530;11.754;2023-02-22T03:54:02;100045.06;;;20.19;46.95
40075;BME280;26529;51.530;11.754;2023-02-22T03:56:38;100052.19;;;20.18;47.05
40075;BME280;26529;51.530;11.754;2023-02-22T03:59:13;100042.41;;;20.19;46.96
40075;BME280;26529;51.530;11.754;2023-02-22T04:01:39;100042.41;;;20.19;47.09
40075;BME280;26529;51.530;11.754;2023-02-22T04:04:05;100041.53;;;20.18;47.09
40075;BME280;26529;51.530;11.754;2023-02-22T04:06:31;100042.41;;;20.19;47.14
40075;BME280;26529;51.530;11.754;2023-02-22T04:08:58;100038.03;;;20.18;47.05
40075;BME280;26529;51.530;11.754;2023-02-22T04:11:24;100043.38;;;20.18;47.08
40075;BME280;26529;51.530;11.754;2023-02-22T04:13:49;100038.88;;;20.18;47.22
40075;BME280;26529;51.530;11.754;2023-02-22T04:16:16;100038.03;;;20.18;47.02
40075;BME280;26529;51.530;11.754;2023-02-22T04:18:42;100035.38;;;20.18;47.16
40075;BME280;26529;51.530;11.754;2023-02-22T04:21:08;100040.72;;;20.18;46.79
40075;BME280;26529;51.530;11.754;2023-02-22T04:23:38;100040.72;;;20.18;47.09
40075;BME280;26529;51.530;11.754;2023-02-22T04:26:04;100032.00;;;20.16;47.30
40075;BME280;26529;51.530;11.754;2023-02-22T04:28:29;100039.00;;;20.17;47.07
40075;BME280;26529;51.530;11.754;2023-02-22T04:31:16;100029.19;;;20.17;47.13
40075;BME280;26529;51.530;11.754;2023-02-22T04:33:42;100037.19;;;20.17;47.06
40075;BME280;26529;51.530;11.754;2023-02-22T04:36:10;100035.47;;;20.16;47.19
40075;BME280;26529;51.530;11.754;2023-02-22T04:38:36;100031.03;;;20.17;47.13
40075;BME280;26529;51.530;11.754;2023-02-22T04:41:01;100028.38;;;20.17;47.05
40075;BME280;26529;51.530;11.754;2023-02-22T04:43:27;100028.38;;;20.17;46.96
40075;BME280;26529;51.530;11.754;2023-02-22T04:46:00;100028.38;;;20.17;47.01
40075;BME280;26529;51.530;11.754;2023-02-22T04:48:26;100023.03;;;20.17;47.09
40075;BME280;26529;51.530;11.754;2023-02-22T04:50:51;100016.84;;;20.16;47.05
40075;BME280;26529;51.530;11.754;2023-02-22T04:53:18;100009.72;;;20.17;47.09
40075;BME280;26529;51.530;11.754;2023-02-22T04:55:43;100016.00;;;20.16;47.01
40075;BME280;26529;51.530;11.754;2023-02-22T04:58:09;100017.72;;;20.17;47.06
40075;BME280;26529;51.530;11.754;2023-02-22T05:00:36;100017.72;;;20.17;47.06
40075;BME280;26529;51.530;11.754;2023-02-22T05:03:02;100016.84;;;20.16;46.98
40075;BME280;26529;51.530;11.754;2023-02-22T05:05:27;100012.38;;;20.17;47.01
40075;BME280;26529;51.530;11.754;2023-02-22T05:07:53;100005.38;;;20.16;47.06
40075;BME280;26529;51.530;11.754;2023-02-22T05:10:19;100009.81;;;20.15;46.93
40075;BME280;26529;51.530;11.754;2023-02-22T05:12:44;100004.50;;;20.15;47.08
40075;BME280;26529;51.530;11.754;2023-02-22T05:15:15;100008.97;;;20.15;47.08
40075;BME280;26529;51.530;11.754;2023-02-22T05:17:41;100004.50;;;20.15;47.00
40075;BME280;26529;51.530;11.754;2023-02-22T05:20:09;100000.03;;;20.16;47.08
40075;BME280;26529;51.530;11.754;2023-02-22T05:22:41;99994.72;;;20.16;47.07
40075;BME280;26529;51.530;11.754;2023-02-22T05:25:06;99995.66;;;20.15;47.17
40075;BME280;26529;51.530;11.754;2023-02-22T05:27:32;100003.63;;;20.15;47.07
40075;BME280;26529;51.530;11.754;2023-02-22T05:29:57;99993.84;;;20.15;47.01
40075;BME280;26529;51.530;11.754;2023-02-22T05:32:23;99992.16;;;20.14;47.22
40075;BME280;26529;51.530;11.754;2023-02-22T05:34:49;99993.00;;;20.15;46.93
40075;BME280;26529;51.530;11.754;2023-02-22T05:37:14;99993.84;;;20.15;46.99
40075;BME280;26529;51.530;11.754;2023-02-22T05:39:40;99993.97;;;20.14;47.07
40075;BME280;26529;51.530;11.754;2023-02-22T05:42:05;99993.97;;;20.14;47.14
40075;BME280;26529;51.530;11.754;2023-02-22T05:44:31;99992.25;;;20.13;47.08
40075;BME280;26529;51.530;11.754;2023-02-22T05:46:57;99993.00;;;20.15;47.08
40075;BME280;26529;51.530;11.754;2023-02-22T05:49:22;99991.31;;;20.14;47.04
40075;BME280;26529;51.530;11.754;2023-02-22T05:51:47;99991.31;;;20.14;47.08
40075;BME280;26529;51.530;11.754;2023-02-22T05:54:13;99985.97;;;20.14;47.15
40075;BME280;26529;51.530;11.754;2023-02-22T05:56:38;99987.81;;;20.13;47.11
40075;BME280;26529;51.530;11.754;2023-02-22T05:59:04;99993.97;;;20.14;46.99
40075;BME280;26529;51.530;11.754;2023-02-22T06:01:29;99991.31;;;20.14;47.07
40075;BME280;26529;51.530;11.754;2023-02-22T06:03:55;99992.16;;;20.14;47.04
40075;BME280;26529;51.530;11.754;2023-02-22T06:06:20;99991.31;;;20.14;47.12
40075;BME280;26529;51.530;11.754;2023-02-22T06:08:46;99996.63;;;20.14;46.91
40075;BME280;26529;51.530;11.754;2023-02-22T06:11:12;99988.63;;;20.14;47.13
40075;BME280;26529;51.530;11.754;2023-02-22T06:13:38;99995.66;;;20.15;47.14
40075;BME280;26529;51.530;11.754;2023-02-22T06:16:04;99998.13;;;20.18;46.99
40075;BME280;26529;51.530;11.754;2023-02-22T06:18:30;99998.13;;;20.18;46.93
40075;BME280;26529;51.530;11.754;2023-02-22T06:20:56;100000.66;;;20.19;46.95
40075;BME280;26529;51.530;11.754;2023-02-22T06:23:23;100003.19;;;20.21;47.02
40075;BME280;26529;51.530;11.754;2023-02-22T06:25:49;100004.06;;;20.22;47.01
40075;BME280;26529;51.530;11.754;2023-02-22T06:28:14;99996.91;;;20.22;46.87
40075;BME280;26529;51.530;11.754;2023-02-22T06:30:40;100001.28;;;20.23;46.93
40075;BME280;26529;51.530;11.754;2023-02-22T06:33:08;100003.00;;;20.24;46.92
40075;BME280;26529;51.530;11.754;2023-02-22T06:35:33;100011.72;;;20.26;47.00
40075;BME280;26529;51.530;11.754;2023-02-22T06:37:59;100008.09;;;20.27;47.08
40075;BME280;26529;51.530;11.754;2023-02-22T06:40:25;100006.38;;;20.26;47.26
40075;BME280;26529;51.530;11.754;2023-02-22T06:42:54;100006.38;;;20.26;47.03
40075;BME280;26529;51.530;11.754;2023-02-22T06:45:20;100011.72;;;20.26;47.20
40075;BME280;26529;51.530;11.754;2023-02-22T06:47:46;100013.63;;;20.24;47.28
40075;BME280;26529;51.530;11.754;2023-02-22T06:50:25;100003.72;;;20.26;47.30
40075;BME280;26529;51.530;11.754;2023-02-22T06:52:52;100010.00;;;20.25;47.18
40075;BME280;26529;51.530;11.754;2023-02-22T06:55:23;100015.09;;;20.28;47.17
40075;BME280;26529;51.530;11.754;2023-02-22T06:57:49;100013.19;;;20.30;46.98
40075;BME280;26529;51.530;11.754;2023-02-22T07:00:17;100016.81;;;20.29;47.29
40075;BME280;26529;51.530;11.754;2023-02-22T07:02:43;100011.50;;;20.29;47.18
40075;BME280;26529;51.530;11.754;2023-02-22T07:05:10;100015.00;;;20.30;47.31
40075;BME280;26529;51.530;11.754;2023-02-22T07:07:37;100015.09;;;20.28;47.28
40075;BME280;26529;51.530;11.754;2023-02-22T07:10:06;100018.53;;;20.30;47.18
40075;BME280;26529;51.530;11.754;2023-02-22T07:12:33;100015.00;;;20.30;47.19
40075;BME280;26529;51.530;11.754;2023-02-22T07:14:58;100016.81;;;20.29;47.15
40075;BME280;26529;51.530;11.754;2023-02-22T07:17:24;100022.03;;;20.31;47.27
40075;BME280;26529;51.530;11.754;2023-02-22T07:19:49;100022.88;;;20.31;47.40
40075;BME280;26529;51.530;11.754;2023-02-22T07:22:15;100023.84;;;20.30;47.03
40075;BME280;26529;51.530;11.754;2023-02-22T07:24:42;100013.19;;;20.30;47.05
40075;BME280;26529;51.530;11.754;2023-02-22T07:27:07;100023.84;;;20.30;47.22
40075;BME280;26529;51.530;11.754;2023-02-22T07:29:33;100022.88;;;20.31;47.05
40075;BME280;26529;51.530;11.754;2023-02-22T07:32:01;100017.56;;;20.31;47.13
40075;BME280;26529;51.530;11.754;2023-02-22T07:34:27;100015.00;;;20.30;47.56
40075;BME280;26529;51.530;11.754;2023-02-22T07:36:52;100018.53;;;20.30;47.06
40075;BME280;26529;51.530;11.754;2023-02-22T07:39:18;100012.34;;;20.30;46.95
40075;BME280;26529;51.530;11.754;2023-02-22T07:41:44;100015.88;;;20.30;47.24
40075;BME280;26529;51.530;11.754;2023-02-22T07:44:22;100018.53;;;20.30;47.11
40075;BME280;26529;51.530;11.754;2023-02-22T07:46:48;100016.81;;;20.29;47.25
40075;BME280;26529;51.530;11.754;2023-02-22T07:49:15;100018.53;;;20.30;47.22
40075;BME280;26529;51.530;11.754;2023-02-22T07:51:40;100018.53;;;20.30;47.08
40075;BME280;26529;51.530;11.754;2023-02-22T07:54:06;100009.78;;;20.28;47.13
40075;BME280;26529;51.530;11.754;2023-02-22T07:56:31;100015.09;;;20.28;47.13
40075;BME280;26529;51.530;11.754;2023-02-22T07:58:57;100018.72;;;20.27;47.06
40075;BME280;26529;51.530;11.754;2023-02-22T08:01:22;100009.78;;;20.28;46.94
40075;BME280;26529;51.530;11.754;2023-02-22T08:03:49;100014.28;;;20.28;46.92
40075;BME280;26529;51.530;11.754;2023-02-22T08:06:15;100012.56;;;20.27;46.93
40075;BME280;26529;51.530;11.754;2023-02-22T08:08:40;100013.41;;;20.27;46.87
40075;BME280;26529;51.530;11.754;2023-02-22T08:11:07;100017.91;;;20.27;46.66
40075;BME280;26529;51.530;11.754;2023-02-22T08:13:33;100014.38;;;20.26;46.67
40075;BME280;26529;51.530;11.754;2023-02-22T08:16:01;100014.38;;;20.26;46.63
40075;BME280;26529;51.530;11.754;2023-02-22T08:18:27;100018.72;;;20.27;46.60
40075;BME280;26529;51.530;11.754;2023-02-22T08:20:53;100014.38;;;20.26;46.71
40075;BME280;26529;51.530;11.754;2023-02-22T08:23:21;100012.56;;;20.27;46.67
40075;BME280;26529;51.530;11.754;2023-02-22T08:25:47;100006.38;;;20.26;46.49
40075;BME280;26529;51.530;11.754;2023-02-22T08:28:16;100010.75;;;20.27;46.48
40075;BME280;26529;51.530;11.754;2023-02-22T08:30:41;100010.75;;;20.27;46.44
40075;BME280;26529;51.530;11.754;2023-02-22T08:33:11;100007.97;;;20.29;46.32
40075;BME280;26529;51.530;11.754;2023-02-22T08:35:39;100012.34;;;20.30;46.37
40075;BME280;26529;51.530;11.754;2023-02-22T08:38:15;100010.53;;;20.30;46.28
40075;BME280;26529;51.530;11.754;2023-02-22T08:40:41;100013.31;;;20.29;46.33
40075;BME280;26529;51.530;11.754;2023-02-22T08:43:06;100007.88;;;20.30;46.26
40075;BME280;26529;51.530;11.754;2023-02-22T08:45:32;100005.94;;;20.32;46.33
40075;BME280;26529;51.530;11.754;2023-02-22T08:47:58;100010.19;;;20.35;46.35
40075;BME280;26529;51.530;11.754;2023-02-22T08:50:29;100016.34;;;20.36;46.35
40075;BME280;26529;51.530;11.754;2023-02-22T08:52:59;100003.81;;;20.38;46.12
40075;BME280;26529;51.530;11.754;2023-02-22T08:55:28;100013.38;;;20.40;46.08
40075;BME280;26529;51.530;11.754;2023-02-22T08:57:55;100015.91;;;20.42;46.19
40075;BME280;26529;51.530;11.754;2023-02-22T09:00:21;100011.56;;;20.41;46.13
40075;BME280;26529;51.530;11.754;2023-02-22T09:02:51;100011.69;;;20.39;46.16
40075;BME280;26529;51.530;11.754;2023-02-22T09:05:17;100002.84;;;20.39;46.10
40075;BME280;26529;51.530;11.754;2023-02-22T09:07:43;99999.44;;;20.37;46.03
40075;BME280;26529;51.530;11.754;2023-02-22T09:10:21;100006.56;;;20.36;46.18
40075;BME280;26529;51.530;11.754;2023-02-22T09:12:50;100006.66;;;20.34;46.18
40075;BME280;26529;51.530;11.754;2023-02-22T09:15:16;100007.63;;;20.33;46.17
40075;BME280;26529;51.530;11.754;2023-02-22T09:17:41;99995.28;;;20.32;46.23
40075;BME280;26529;51.530;11.754;2023-02-22T09:20:08;100002.31;;;20.33;46.39
40075;BME280;26529;51.530;11.754;2023-02-22T09:22:36;99999.66;;;20.33;46.13
40075;BME280;26529;51.530;11.754;2023-02-22T09:25:01;99995.28;;;20.32;46.26
40075;BME280;26529;51.530;11.754;2023-02-22T09:27:27;99997.00;;;20.33;46.15
40075;BME280;26529;51.530;11.754;2023-02-22T09:29:53;99997.00;;;20.33;46.28
40075;BME280;26529;51.530;11.754;2023-02-22T09:32:19;99994.31;;;20.33;46.25
40075;BME280;26529;51.530;11.754;2023-02-22T09:34:45;99987.06;;;20.36;46.17
40075;BME280;26529;51.530;11.754;2023-02-22T09:37:11;99983.47;;;20.37;46.13
40075;BME280;26529;51.530;11.754;2023-02-22T09:39:37;99985.16;;;20.38;46.22
40075;BME280;26529;51.530;11.754;2023-02-22T09:42:30;99984.28;;;20.37;46.33
40075;BME280;26529;51.530;11.754;2023-02-22T09:45:20;99988.66;;;20.38;46.26
40075;BME280;26529;51.530;11.754;2023-02-22T09:47:51;99985.06;;;20.39;46.28
40075;BME280;26529;51.530;11.754;2023-02-22T09:50:24;99975.25;;;20.40;46.22
40075;BME280;26529;51.530;11.754;2023-02-22T09:52:59;99987.81;;;20.38;46.33
40075;BME280;26529;51.530;11.754;2023-02-22T09:55:41;99980.66;;;20.38;46.47
40075;BME280;26529;51.530;11.754;2023-02-22T10:00:56;99979.72;;;20.39;46.39
40075;BME280;26529;51.530;11.754;2023-02-22T10:03:33;99970.88;;;20.39;46.39
40075;BME280;26529;51.530;11.754;2023-02-22T10:06:09;99968.22;;;20.39;46.54
40075;BME280;26529;51.530;11.754;2023-02-22T10:08:36;99968.22;;;20.39;46.41
40075;BME280;26529;51.530;11.754;2023-02-22T10:14:31;99961.19;;;20.38;46.54
40075;BME280;26529;51.530;11.754;2023-02-22T10:17:21;99963.97;;;20.36;46.52
40075;BME280;26529;51.530;11.754;2023-02-22T10:20:02;99955.88;;;20.38;46.66
40075;BME280;26529;51.530;11.754;2023-02-22T10:22:41;99957.56;;;20.39;46.41
40075;BME280;26529;51.530;11.754;2023-02-22T10:25:17;99946.91;;;20.39;46.46
40075;BME280;26529;51.530;11.754;2023-02-22T10:27:53;99952.25;;;20.39;46.48
40075;BME280;26529;51.530;11.754;2023-02-22T10:30:23;99949.69;;;20.37;46.53
40075;BME280;26529;51.530;11.754;2023-02-22T10:33:12;99943.53;;;20.37;46.55
40075;BME280;26529;51.530;11.754;2023-02-22T10:35:40;99945.22;;;20.38;46.61
40075;BME280;26529;51.530;11.754;2023-02-22T10:38:27;99940.88;;;20.37;46.46
40075;BME280;26529;51.530;11.754;2023-02-22T10:40:58;99938.06;;;20.38;46.52
40075;BME280;26529;51.530;11.754;2023-02-22T10:43:25;99939.66;;;20.41;46.53
40075;BME280;26529;51.530;11.754;2023-02-22T10:45:53;99933.50;;;20.40;46.21
40075;BME280;26529;51.530;11.754;2023-02-22T10:48:21;99930.69;;;20.42;46.54
40075;BME280;26529;51.530;11.754;2023-02-22T10:50:48;99923.47;;;20.44;46.35
40075;BME280;26529;51.530;11.754;2023-02-22T10:53:15;99923.22;;;20.47;46.38
40075;BME280;26529;51.530;11.754;2023-02-22T10:56:13;99923.00;;;20.50;46.31
40075;BME280;26529;51.530;11.754;2023-02-22T10:58:50;99917.44;;;20.53;46.25
40075;BME280;26529;51.530;11.754;2023-02-22T11:01:20;99909.94;;;20.58;46.09
40075;BME280;26529;51.530;11.754;2023-02-22T11:03:56;99916.50;;;20.66;45.90
40075;BME280;26529;51.530;11.754;2023-02-22T11:06:22;99913.38;;;20.72;45.81
40075;BME280;26529;51.530;11.754;2023-02-22T11:08:47;99910.47;;;20.75;45.80
40075;BME280;26529;51.530;11.754;2023-02-22T11:11:25;99902.47;;;20.75;45.82
40075;BME280;26529;51.530;11.754;2023-02-22T11:13:55;99904.91;;;20.78;45.80
40075;BME280;26529;51.530;11.754;2023-02-22T11:16:27;99897.66;;;20.80;45.64
40075;BME280;26529;51.530;11.754;2023-02-22T11:19:01;99896.56;;;20.83;45.64
40075;BME280;26529;51.530;11.754;2023-02-22T11:21:29;99905.31;;;20.85;45.64
40075;BME280;26529;51.530;11.754;2023-02-22T11:24:06;99892.59;;;20.88;45.46
40075;BME280;26529;51.530;11.754;2023-02-22T11:26:57;99893.56;;;20.87;45.68
40075;BME280;26529;51.530;11.754;2023-02-22T11:29:33;99881.84;;;20.90;45.58
40075;BME280;26529;51.530;11.754;2023-02-22T11:32:11;99887.78;;;20.94;45.41
40075;BME280;26529;51.530;11.754;2023-02-22T11:34:40;99885.84;;;20.96;45.41
40075;BME280;26529;51.530;11.754;2023-02-22T11:39:43;99869.38;;;21.02;45.25
40075;BME280;26529;51.530;11.754;2023-02-22T11:42:20;99866.59;;;21.04;45.16
40075;BME280;26529;51.530;11.754;2023-02-22T11:44:47;99861.25;;;21.04;45.37
40075;BME280;26529;51.530;11.754;2023-02-22T11:47:13;99861.16;;;21.05;45.43
40075;BME280;26529;51.530;11.754;2023-02-22T11:49:42;99861.88;;;21.07;45.38
40075;BME280;26529;51.530;11.754;2023-02-22T11:55:07;99855.44;;;21.10;45.29
40075;BME280;26529;51.530;11.754;2023-02-22T12:00:50;99842.00;;;21.11;45.55
40075;BME280;26529;51.530;11.754;2023-02-22T12:09:29;99841.75;;;21.14;45.47
40075;BME280;26529;51.530;11.754;2023-02-22T12:17:51;99840.91;;;21.14;45.51
40075;BME280;26529;51.530;11.754;2023-02-22T12:20:29;99841.75;;;21.14;45.37
40075;BME280;26529;51.530;11.754;2023-02-22T12:23:21;99839.09;;;21.14;45.41
40075;BME280;26529;51.530;11.754;2023-02-22T12:26:09;99833.75;;;21.14;45.58
40075;BME280;26529;51.530;11.754;2023-02-22T12:28:45;99835.59;;;21.14;45.64
40075;BME280;26529;51.530;11.754;2023-02-22T12:31:59;99837.50;;;21.12;45.61
40075;BME280;26529;51.530;11.754;2023-02-22T12:36:49;99834.97;;;21.10;45.73
40075;BME280;26529;51.530;11.754;2023-02-22T12:42:01;99832.78;;;21.15;45.45
40075;BME280;26529;51.530;11.754;2023-02-22T12:44:34;99822.97;;;21.16;45.51
40075;BME280;26529;51.530;11.754;2023-02-22T12:47:03;99822.13;;;21.15;45.54
40075;BME280;26529;51.530;11.754;2023-02-22T12:49:38;99825.53;;;21.18;45.53
40075;BME280;26529;51.530;11.754;2023-02-22T12:52:44;99825.53;;;21.18;45.69
40075;BME280;26529;51.530;11.754;2023-02-22T12:55:51;99830.72;;;21.19;45.58
40075;BME280;26529;51.530;11.754;2023-02-22T13:00:56;99826.34;;;21.18;45.59
40075;BME280;26529;51.530;11.754;2023-02-22T13:03:40;99822.13;;;21.15;45.52
40075;BME280;26529;51.530;11.754;2023-02-22T13:06:27;99816.06;;;21.13;45.74
40075;BME280;26529;51.530;11.754;2023-02-22T13:11:56;99821.66;;;21.10;45.82
40075;BME280;26529;51.530;11.754;2023-02-22T13:17:24;99815.09;;;21.14;45.78
40075;BME280;26529;51.530;11.754;2023-02-22T13:22:50;99815.94;;;21.15;46.03
40075;BME280;26529;51.530;11.754;2023-02-22T13:25:31;99814.25;;;21.14;45.90
40075;BME280;26529;51.530;11.754;2023-02-22T13:30:44;99803.00;;;21.10;46.08
40075;BME280;26529;51.530;11.754;2023-02-22T13:44:27;99781.91;;;21.07;45.74
40075;BME280;26529;51.530;11.754;2023-02-22T13:47:54;99790.88;;;21.06;46.01
40075;BME280;26529;51.530;11.754;2023-02-22T13:53:11;99792.94;;;21.03;46.02
40075;BME280;26529;51.530;11.754;2023-02-22T13:55:40;99787.72;;;21.01;45.84
40075;BME280;26529;51.530;11.754;2023-02-22T13:58:09;99786.88;;;21.00;46.05
40075;BME280;26529;51.530;11.754;2023-02-22T14:00:48;99778.16;;;20.98;46.09
40075;BME280;26529;51.530;11.754;2023-02-22T14:10:52;99786.41;;;20.95;46.10
40075;BME280;26529;51.530;11.754;2023-02-22T14:13:23;99776.72;;;20.94;45.89
40075;BME280;26529;51.530;11.754;2023-02-22T14:18:25;99781.19;;;20.94;46.21
40075;BME280;26529;51.530;11.754;2023-02-22T14:21:06;99769.53;;;20.95;46.09
40075;BME280;26529;51.530;11.754;2023-02-22T14:23:37;99765.19;;;20.94;46.08